Terminal Aerodrome Forecast
Issued by NWS

Home | Current Version | Previous Version | Text Only | Print | Product List | Glossary Off
Versions: 1 2 3 4 5 6 7 8 9 10 11 12 13 14 15 16 17 18 19 20 21 22 23 24 25 26 27 28

597
FTUS43 KGRB 182038 AAA
TAFRHI
TAF AMD
KRHI 182038Z 1821/1918 05014G19KT P6SM SCT035 BKN150
     FM190000 02010G15KT P6SM SCT150
     FM190500 35007KT P6SM SKC=

USA.gov is the U.S. government's official web portal to all federal, state and local government web resources and services.